MiSS Ellie — WDJ2256 — position and weather

sailwx.info

Track history (hours):
 
Tides and Currents Weather Stations Pressure Air Temp Water Temp Dewpoint Dewpoint Depression Visibility Wind Speed Wind Dir Waves Ship Positions

MiSS Ellie

Owner: Magnolia Marine Transportation Company, Vicksburg, MS. More information available from US FCC via Universal Licensing System and Coast Guard Vessel Documentation Center.

Last reported at 2018-Feb-17 21:30 UTC. Time now 2018-Feb-17 21:44 UTC.
Position N 30°04' W 093°23'.

Length 33 m.

Type: Towing. MMSI: 367756630.

Date/timePositionNaut miles runAvg speedWind from/ knotsBaromVisibWave heightAir tempDewpointWater temp
2018-Feb-17 21:30N 30°04' W 093°23'0 0.6
2018-Feb-17 21:01N 30°04' W 093°24'3 5.3
2018-Feb-17 20:31N 30°04' W 093°27'3 5.4
2018-Feb-17 20:01N 30°04' W 093°30'2 3.6
2018-Feb-17 19:30N 30°04' W 093°32'3 6.3
2018-Feb-17 18:59N 30°04' W 093°36'3 5.9
2018-Feb-17 18:29N 30°04' W 093°39'0 0.1
2018-Feb-17 18:00N 30°04' W 093°39'1 2.6
2018-Feb-17 17:30N 30°04' W 093°41'3 6.3
2018-Feb-17 17:01N 30°03' W 093°44'4 7.6
2018-Feb-17 16:30N 29°60' W 093°47'3 6.4
2018-Feb-17 16:00N 29°58' W 093°50'4 7.7
2018-Feb-17 15:31N 29°55' W 093°53'4 8.6
2018-Feb-17 15:01N 29°52' W 093°56'3 6.8
2018-Feb-17 14:30N 29°49' W 093°58'4 7.7
2018-Feb-17 14:00N 29°47' W 094°02'3 5.5
2018-Feb-17 13:31N 29°45' W 094°04'3 6.7
2018-Feb-17 13:01N 29°43' W 094°07'2 3.6
2018-Feb-17 12:31N 29°42' W 094°09'0 0.0
2018-Feb-17 12:01N 29°42' W 094°09'0 0.0
2018-Feb-17 11:30N 29°42' W 094°09'0 0.0
2018-Feb-17 11:00N 29°42' W 094°09'0 0.0
2018-Feb-17 10:30N 29°42' W 094°09'0 0.0
2018-Feb-17 10:01N 29°42' W 094°09'0 0.0
2018-Feb-17 09:30N 29°42' W 094°09'0 0.0
2018-Feb-17 09:00N 29°42' W 094°09'0 0.0
2018-Feb-17 08:30N 29°42' W 094°09'0 0.0
2018-Feb-17 08:00N 29°42' W 094°09'0 0.0
2018-Feb-17 07:30N 29°42' W 094°09'0 0.0
2018-Feb-17 07:01N 29°42' W 094°09'0 0.0
2018-Feb-17 06:30N 29°42' W 094°09'0 0.0
2018-Feb-17 06:01N 29°42' W 094°09'0 0.0
2018-Feb-17 05:30N 29°42' W 094°09'0 0.0
2018-Feb-17 05:01N 29°42' W 094°09'0 0.0
2018-Feb-17 04:31N 29°42' W 094°09'0 0.0
2018-Feb-17 03:59N 29°42' W 094°09'1 1.6
2018-Feb-17 03:30N 29°41' W 094°10'3 6.9
2018-Feb-17 03:00N 29°40' W 094°13'3 5.0
2018-Feb-17 02:27N 29°39' W 094°16'1 2.0
2018-Feb-17 02:00N 29°39' W 094°17'2 3.8
2018-Feb-17 01:30N 29°38' W 094°19'3 5.6
2018-Feb-17 01:00N 29°36' W 094°22'3 5.6
2018-Feb-17 00:30N 29°35' W 094°25'3 6.1
2018-Feb-16 23:57N 29°33' W 094°28'7 5.2
2018-Feb-16 22:40N 29°30' W 094°34'14 2.3
2018-Feb-16 16:37N 29°25' W 094°50'111.2
2018-Feb-16 16:31N 29°26' W 094°50'611.1
2018-Feb-16 16:01N 29°31' W 094°53'510.5
2018-Feb-16 15:30N 29°35' W 094°56'510.4
2018-Feb-16 15:01N 29°40' W 094°59'5 9.3
2018-Feb-16 14:29N 29°44' W 095°02'3 0.1
2018-Feb-15 08:32N 29°45' W 095°06'0 0.0
2018-Feb-15 08:29N 29°45' W 095°06'0 0.0
2018-Feb-15 07:52N 29°45' W 095°06'0 0.0
2018-Feb-15 07:26N 29°45' W 095°06'0 0.0
2018-Feb-15 06:51N 29°45' W 095°06'0 0.0
2018-Feb-15 06:25N 29°45' W 095°06'0 0.0
2018-Feb-15 05:58N 29°45' W 095°06'0 0.0
2018-Feb-15 05:30N 29°45' W 095°06'0 0.0
2018-Feb-15 04:46N 29°45' W 095°06'0 0.0
2018-Feb-15 04:22N 29°45' W 095°06'1 0.1
2018-Feb-14 20:15N 29°46' W 095°06'  
2018-Feb-12 13:52N 29°31' W 094°53'4 9.9
2018-Feb-12 13:31N 29°34' W 094°55'5 9.5
2018-Feb-12 13:01N 29°38' W 094°58'5 9.7
2018-Feb-12 12:31N 29°42' W 095°00'5 8.8
2018-Feb-12 11:59N 29°45' W 095°04'  
2018-Feb-07 22:27N 29°47' W 095°04'  
Track history (hours):
 
Tides and Currents Weather Stations Pressure Air Temp Water Temp Dewpoint Dewpoint Depression Visibility Wind Speed Wind Dir Waves Ship Positions

MiSS Ellie

Owner: Magnolia Marine Transportation Company, Vicksburg, MS. More information available from US FCC via Universal Licensing System and Coast Guard Vessel Documentation Center.

Last reported at 2018-Feb-17 21:30 UTC. Time now 2018-Feb-17 21:45 UTC.
Position N 30°04' W 093°23'.

Length 33 m.

Type: Towing. MMSI: 367756630.

Date/timePositionNaut miles runAvg speedWind from/ knotsBaromVisibWave heightAir tempDewpointWater temp
2018-Feb-17 21:30N 30°04' W 093°23'0 0.6
2018-Feb-17 21:01N 30°04' W 093°24'3 5.3
2018-Feb-17 20:31N 30°04' W 093°27'3 5.4
2018-Feb-17 20:01N 30°04' W 093°30'2 3.6
2018-Feb-17 19:30N 30°04' W 093°32'3 6.3
2018-Feb-17 18:59N 30°04' W 093°36'3 5.9
2018-Feb-17 18:29N 30°04' W 093°39'0 0.1
2018-Feb-17 18:00N 30°04' W 093°39'1 2.6
2018-Feb-17 17:30N 30°04' W 093°41'3 6.3
2018-Feb-17 17:01N 30°03' W 093°44'4 7.6
2018-Feb-17 16:30N 29°60' W 093°47'3 6.4
2018-Feb-17 16:00N 29°58' W 093°50'4 7.7
2018-Feb-17 15:31N 29°55' W 093°53'4 8.6
2018-Feb-17 15:01N 29°52' W 093°56'3 6.8
2018-Feb-17 14:30N 29°49' W 093°58'4 7.7
2018-Feb-17 14:00N 29°47' W 094°02'3 5.5
2018-Feb-17 13:31N 29°45' W 094°04'3 6.7
2018-Feb-17 13:01N 29°43' W 094°07'2 3.6
2018-Feb-17 12:31N 29°42' W 094°09'0 0.0
2018-Feb-17 12:01N 29°42' W 094°09'0 0.0
2018-Feb-17 11:30N 29°42' W 094°09'0 0.0
2018-Feb-17 11:00N 29°42' W 094°09'0 0.0
2018-Feb-17 10:30N 29°42' W 094°09'0 0.0
2018-Feb-17 10:01N 29°42' W 094°09'0 0.0
2018-Feb-17 09:30N 29°42' W 094°09'0 0.0
2018-Feb-17 09:00N 29°42' W 094°09'0 0.0
2018-Feb-17 08:30N 29°42' W 094°09'0 0.0
2018-Feb-17 08:00N 29°42' W 094°09'0 0.0
2018-Feb-17 07:30N 29°42' W 094°09'0 0.0
2018-Feb-17 07:01N 29°42' W 094°09'0 0.0
2018-Feb-17 06:30N 29°42' W 094°09'0 0.0
2018-Feb-17 06:01N 29°42' W 094°09'0 0.0
2018-Feb-17 05:30N 29°42' W 094°09'0 0.0
2018-Feb-17 05:01N 29°42' W 094°09'0 0.0
2018-Feb-17 04:31N 29°42' W 094°09'0 0.0
2018-Feb-17 03:59N 29°42' W 094°09'1 1.6
2018-Feb-17 03:30N 29°41' W 094°10'3 6.9
2018-Feb-17 03:00N 29°40' W 094°13'3 5.0
2018-Feb-17 02:27N 29°39' W 094°16'1 2.0
2018-Feb-17 02:00N 29°39' W 094°17'2 3.8
2018-Feb-17 01:30N 29°38' W 094°19'3 5.6
2018-Feb-17 01:00N 29°36' W 094°22'3 5.6
2018-Feb-17 00:30N 29°35' W 094°25'3 6.1
2018-Feb-16 23:57N 29°33' W 094°28'7 5.2
2018-Feb-16 22:40N 29°30' W 094°34'14 2.3
2018-Feb-16 16:37N 29°25' W 094°50'111.2
2018-Feb-16 16:31N 29°26' W 094°50'611.1
2018-Feb-16 16:01N 29°31' W 094°53'510.5
2018-Feb-16 15:30N 29°35' W 094°56'510.4
2018-Feb-16 15:01N 29°40' W 094°59'5 9.3
2018-Feb-16 14:29N 29°44' W 095°02'3 0.1
2018-Feb-15 08:32N 29°45' W 095°06'0 0.0
2018-Feb-15 08:29N 29°45' W 095°06'0 0.0
2018-Feb-15 07:52N 29°45' W 095°06'0 0.0
2018-Feb-15 07:26N 29°45' W 095°06'0 0.0
2018-Feb-15 06:51N 29°45' W 095°06'0 0.0
2018-Feb-15 06:25N 29°45' W 095°06'0 0.0
2018-Feb-15 05:58N 29°45' W 095°06'0 0.0
2018-Feb-15 05:30N 29°45' W 095°06'0 0.0
2018-Feb-15 04:46N 29°45' W 095°06'0 0.0
2018-Feb-15 04:22N 29°45' W 095°06'1 0.1
2018-Feb-14 20:15N 29°46' W 095°06'  
2018-Feb-12 13:52N 29°31' W 094°53'4 9.9
2018-Feb-12 13:31N 29°34' W 094°55'5 9.5
2018-Feb-12 13:01N 29°38' W 094°58'5 9.7
2018-Feb-12 12:31N 29°42' W 095°00'5 8.8
2018-Feb-12 11:59N 29°45' W 095°04'  
2018-Feb-07 22:27N 29°47' W 095°04'  

Dump ship's entire track history